createdAt,value
2019-01-03T00:00:49.416Z,76.40
2019-01-03T00:03:24.866Z,76.40
2019-01-03T00:06:01.668Z,76.70
2019-01-03T00:08:50.523Z,77.00
2019-01-03T00:11:21.376Z,77.40
2019-01-03T00:14:08.701Z,77.70
2019-01-03T00:16:57.941Z,78.10
2019-01-03T00:19:44.988Z,78.20
2019-01-03T00:22:21.660Z,78.50
2019-01-03T00:24:58.192Z,79.00
2019-01-03T00:27:45.539Z,79.00
2019-01-03T00:30:19.132Z,79.00
2019-01-03T00:32:55.841Z,79.40
2019-01-03T00:35:29.621Z,79.50
2019-01-03T00:38:00.436Z,79.50
2019-01-03T00:40:33.980Z,79.60
2019-01-03T00:43:16.684Z,79.70
2019-01-03T00:45:53.230Z,79.90
2019-01-03T00:48:26.466Z,79.70
2019-01-03T00:50:57.292Z,79.50
2019-01-03T00:53:28.125Z,79.80
2019-01-03T00:55:59.258Z,79.90
2019-01-03T00:58:46.684Z,79.90
2019-01-03T01:01:32.784Z,80.00
2019-01-03T01:04:06.351Z,80.30
2019-01-03T01:06:37.194Z,80.30
2019-01-03T01:09:24.888Z,80.40
2019-01-03T01:11:55.713Z,80.00
2019-01-03T01:14:32.240Z,80.20
2019-01-03T01:17:03.080Z,80.30
2019-01-03T01:19:33.913Z,80.10
2019-01-03T01:22:21.289Z,79.90
2019-01-03T01:24:55.067Z,79.70
2019-01-03T01:27:28.570Z,79.90
2019-01-03T01:29:59.433Z,79.80
2019-01-03T01:32:30.249Z,79.90
2019-01-03T01:35:19.612Z,79.80
2019-01-03T01:37:52.880Z,80.10
2019-01-03T01:40:35.428Z,80.10
2019-01-03T01:43:06.309Z,80.40
2019-01-03T01:45:43.160Z,79.90
2019-01-03T01:48:25.844Z,80.10
2019-01-03T01:51:12.943Z,80.10
2019-01-03T01:53:46.688Z,80.10
2019-01-03T01:56:17.512Z,80.00
2019-01-03T01:58:48.324Z,79.70
2019-01-03T02:01:24.857Z,79.60
2019-01-03T02:04:01.403Z,79.50
2019-01-03T02:06:47.498Z,79.40
2019-01-03T02:09:24.224Z,79.50
2019-01-03T02:12:03.815Z,79.50
2019-01-03T02:14:37.323Z,79.10
2019-01-03T02:17:13.868Z,79.40
2019-01-03T02:19:47.359Z,79.90
2019-01-03T02:22:34.353Z,79.90
2019-01-03T02:25:13.942Z,79.70
2019-01-03T02:28:01.068Z,79.60
2019-01-03T02:30:43.856Z,79.70
2019-01-03T02:33:31.503Z,79.60
2019-01-03T02:36:11.262Z,79.60
2019-01-03T02:38:57.306Z,79.60
2019-01-03T02:41:28.096Z,79.50
2019-01-03T02:44:17.280Z,79.10
2019-01-03T02:46:51.030Z,78.90
2019-01-03T02:49:21.818Z,78.80
2019-01-03T02:51:52.644Z,78.40
2019-01-03T02:54:23.461Z,78.30
2019-01-03T02:57:03.491Z,78.40
2019-01-03T02:59:49.395Z,78.10
2019-01-03T03:02:20.197Z,78.30
2019-01-03T03:05:07.562Z,78.20
2019-01-03T03:07:38.717Z,78.50
2019-01-03T03:10:26.177Z,78.70
2019-01-03T03:12:59.690Z,78.50
2019-01-03T03:15:46.717Z,78.30
2019-01-03T03:18:17.536Z,78.40
2019-01-03T03:20:51.264Z,77.70
2019-01-03T03:23:22.081Z,77.70
2019-01-03T03:25:55.782Z,77.40
2019-01-03T03:28:35.339Z,77.30
2019-01-03T03:31:12.116Z,77.00
2019-01-03T03:33:59.082Z,76.80
2019-01-03T03:36:29.899Z,76.70
2019-01-03T03:39:09.739Z,76.50
2019-01-03T03:41:57.376Z,76.60
2019-01-03T03:44:30.883Z,76.90
2019-01-03T03:47:17.854Z,77.10
2019-01-03T03:50:04.901Z,76.90
2019-01-03T03:52:35.715Z,76.60
2019-01-03T03:55:06.539Z,76.40
2019-01-03T03:57:55.431Z,76.20
2019-01-03T04:00:43.307Z,76.80
2019-01-03T04:03:30.531Z,77.10
2019-01-03T04:06:17.801Z,77.20
2019-01-03T04:09:00.782Z,77.30
2019-01-03T04:11:33.165Z,77.30
2019-01-03T04:14:09.984Z,77.40
2019-01-03T04:16:46.539Z,77.30
2019-01-03T04:19:33.895Z,77.30
2019-01-03T04:22:07.747Z,77.30
2019-01-03T04:24:55.270Z,77.10
2019-01-03T04:27:42.257Z,77.00
2019-01-03T04:30:22.079Z,77.00
2019-01-03T04:32:52.916Z,76.90
2019-01-03T04:35:42.055Z,77.00
2019-01-03T04:38:24.941Z,77.10
2019-01-03T04:41:01.742Z,77.10
2019-01-03T04:43:49.029Z,77.20
2019-01-03T04:46:19.845Z,77.20
2019-01-03T04:48:53.583Z,77.40
2019-01-03T04:51:40.950Z,77.40
2019-01-03T04:54:11.766Z,77.40
2019-01-03T04:56:57.710Z,77.50
2019-01-03T04:59:37.264Z,77.70
2019-01-03T05:02:23.352Z,77.70
2019-01-03T05:04:54.168Z,77.90
2019-01-03T05:07:41.209Z,78.30
2019-01-03T05:10:27.124Z,78.70
2019-01-03T05:13:13.922Z,79.00
2019-01-03T05:15:59.812Z,79.10
2019-01-03T05:18:33.613Z,79.20
2019-01-03T05:21:20.925Z,79.60
2019-01-03T05:23:57.405Z,80.10
2019-01-03T05:26:39.268Z,80.40
2019-01-03T05:29:25.094Z,80.90
2019-01-03T05:32:08.253Z,80.80
2019-01-03T05:34:41.721Z,81.10
2019-01-03T05:37:12.545Z,81.20
2019-01-03T05:39:55.184Z,81.40
2019-01-03T05:42:28.925Z,81.60
2019-01-03T05:45:02.412Z,81.50
2019-01-03T05:47:33.914Z,81.40
2019-01-03T05:50:07.866Z,81.40
2019-01-03T05:52:44.848Z,81.30
2019-01-03T05:55:15.673Z,81.50
2019-01-03T05:57:55.518Z,81.40
2019-01-03T06:00:29.099Z,81.50
2019-01-03T06:03:06.041Z,81.50
2019-01-03T06:05:36.864Z,81.30
2019-01-03T06:08:07.692Z,81.00
2019-01-03T06:10:38.525Z,81.30
2019-01-03T06:13:18.814Z,81.20
2019-01-03T06:15:52.542Z,81.10
2019-01-03T06:18:39.487Z,80.90
2019-01-03T06:21:10.370Z,80.60
2019-01-03T06:23:50.204Z,80.60
2019-01-03T06:26:21.044Z,80.70
2019-01-03T06:28:51.854Z,80.50
2019-01-03T06:31:39.126Z,80.20
2019-01-03T06:34:15.884Z,80.20
2019-01-03T06:36:49.437Z,80.30
2019-01-03T06:39:20.241Z,80.40
2019-01-03T06:41:51.077Z,80.50
2019-01-03T06:44:38.183Z,80.20
2019-01-03T06:47:21.053Z,80.30
2019-01-03T06:49:54.573Z,80.30
2019-01-03T06:52:25.381Z,80.10
2019-01-03T06:54:56.225Z,79.80
2019-01-03T06:57:27.024Z,79.80
2019-01-03T07:00:14.044Z,79.70
2019-01-03T07:02:50.883Z,79.50
2019-01-03T07:05:22.647Z,79.40
2019-01-03T07:08:08.487Z,79.10
2019-01-03T07:10:39.349Z,78.70
2019-01-03T07:13:10.124Z,78.70
2019-01-03T07:15:58.355Z,78.80
2019-01-03T07:18:38.344Z,78.80
2019-01-03T07:21:09.183Z,78.80
2019-01-03T07:23:40.006Z,78.80
2019-01-03T07:26:28.959Z,78.80
2019-01-03T07:29:05.516Z,79.00
2019-01-03T07:31:51.550Z,79.20
2019-01-03T07:34:28.079Z,79.40
2019-01-03T07:37:01.843Z,79.50
2019-01-03T07:39:32.651Z,79.30
2019-01-03T07:42:15.342Z,79.30
2019-01-03T07:45:01.252Z,79.60
2019-01-03T07:47:38.116Z,79.70
2019-01-03T07:50:25.367Z,80.20
2019-01-03T07:53:13.524Z,80.80
2019-01-03T07:55:53.264Z,81.40
2019-01-03T07:58:42.454Z,81.80
2019-01-03T08:01:22.149Z,82.10
2019-01-03T08:04:11.326Z,82.30
2019-01-03T08:06:58.620Z,82.30
2019-01-03T08:09:44.740Z,82.30
2019-01-03T08:12:30.478Z,82.10
2019-01-03T08:15:04.245Z,81.90
2019-01-03T08:17:37.764Z,81.60
2019-01-03T08:20:11.530Z,81.10
2019-01-03T08:22:45.112Z,80.90
2019-01-03T08:25:15.928Z,80.60
2019-01-03T08:27:46.767Z,80.40
2019-01-03T08:30:32.876Z,80.30
2019-01-03T08:33:19.837Z,79.80
2019-01-03T08:36:06.817Z,79.60
2019-01-03T08:38:53.912Z,79.20
2019-01-03T08:41:41.106Z,79.40
2019-01-03T08:44:24.288Z,79.40
2019-01-03T08:47:11.397Z,79.40
2019-01-03T08:50:01.036Z,79.20
2019-01-03T08:52:48.026Z,79.30
2019-01-03T08:55:21.555Z,79.50
2019-01-03T08:57:52.369Z,80.40
2019-01-03T09:00:39.621Z,81.30
2019-01-03T09:03:22.779Z,82.50
2019-01-03T09:06:11.674Z,83.60
2019-01-03T09:08:59.052Z,84.20
2019-01-03T09:11:35.442Z,84.70
2019-01-03T09:14:06.268Z,84.80
2019-01-03T09:16:49.024Z,85.00
2019-01-03T09:19:19.884Z,85.00
2019-01-03T09:22:05.830Z,84.80
2019-01-03T09:24:39.505Z,84.80
2019-01-03T09:27:19.322Z,84.40
2019-01-03T09:30:02.391Z,84.30
2019-01-03T09:32:42.141Z,84.20
2019-01-03T09:35:16.218Z,83.90
2019-01-03T09:37:47.113Z,83.50
2019-01-03T09:40:20.900Z,83.50
2019-01-03T09:43:10.073Z,83.30
2019-01-03T09:45:44.310Z,83.30
2019-01-03T09:48:10.165Z,84.00
2019-01-03T09:50:39.395Z,84.30
2019-01-03T09:53:08.573Z,84.50
2019-01-03T09:55:37.810Z,84.60
2019-01-03T09:58:07.016Z,84.60
2019-01-03T10:00:36.206Z,84.50
2019-01-03T10:03:05.420Z,84.20
2019-01-03T10:05:34.601Z,83.90
2019-01-03T10:08:19.728Z,83.60
2019-01-03T10:10:47.240Z,83.50
2019-01-03T10:13:16.453Z,83.50
2019-01-03T10:15:45.641Z,83.40
2019-01-03T10:18:14.841Z,83.40
2019-01-03T10:20:44.044Z,83.60
2019-01-03T10:23:13.297Z,83.60
2019-01-03T10:25:42.481Z,83.70
2019-01-03T10:28:11.704Z,83.40
2019-01-03T10:30:40.899Z,83.50
2019-01-03T10:33:10.120Z,83.30
2019-01-03T10:35:39.385Z,83.40
2019-01-03T10:38:08.648Z,83.20
2019-01-03T10:40:37.849Z,83.20
2019-01-03T10:43:07.060Z,83.20
2019-01-03T10:45:36.262Z,83.30
2019-01-03T10:48:05.500Z,83.30
2019-01-03T10:50:34.668Z,83.50
2019-01-03T10:53:03.871Z,83.50
2019-01-03T10:55:33.072Z,83.00
2019-01-03T10:58:02.253Z,82.80
2019-01-03T11:00:31.462Z,82.50
2019-01-03T11:03:00.646Z,82.30
2019-01-03T11:05:29.835Z,82.30
2019-01-03T11:07:59.077Z,81.90
2019-01-03T11:10:28.317Z,81.50
2019-01-03T11:12:57.550Z,81.60
2019-01-03T11:15:26.748Z,81.70
2019-01-03T11:17:55.941Z,81.80
2019-01-03T11:20:25.120Z,82.10
2019-01-03T11:22:54.336Z,81.90
2019-01-03T11:25:23.529Z,81.70
2019-01-03T11:27:52.747Z,81.90
2019-01-03T11:30:22.018Z,82.10
2019-01-03T11:32:51.214Z,81.80
2019-01-03T11:35:20.412Z,82.00
2019-01-03T11:37:49.596Z,82.10
2019-01-03T11:40:18.787Z,82.00
2019-01-03T11:42:48.005Z,81.90
2019-01-03T11:45:17.188Z,82.00
2019-01-03T11:47:46.374Z,81.80
2019-01-03T11:50:15.565Z,81.80
2019-01-03T11:52:44.761Z,81.70
2019-01-03T11:55:14.994Z,81.30
2019-01-03T11:57:44.188Z,81.40
2019-01-03T12:00:13.429Z,81.50
2019-01-03T12:02:42.620Z,81.00
2019-01-03T12:05:11.776Z,81.30
2019-01-03T12:07:40.959Z,81.60
2019-01-03T12:10:10.149Z,82.00
2019-01-03T12:12:39.332Z,82.50
2019-01-03T12:15:09.474Z,82.60
2019-01-03T12:17:38.661Z,82.90
2019-01-03T12:20:08.517Z,83.00
2019-01-03T12:22:37.680Z,83.50
2019-01-03T12:25:06.889Z,83.00
2019-01-03T12:27:36.119Z,83.10
2019-01-03T12:30:08.309Z,82.70
2019-01-03T12:32:37.496Z,82.20
2019-01-03T12:35:07.607Z,82.30
2019-01-03T12:37:36.794Z,81.90
2019-01-03T12:40:07.140Z,81.40
2019-01-03T12:42:36.309Z,81.20
2019-01-03T12:45:07.025Z,81.00
2019-01-03T12:47:36.197Z,80.50
2019-01-03T12:50:08.692Z,80.90
2019-01-03T12:52:37.865Z,80.90
2019-01-03T12:55:07.136Z,81.10
2019-01-03T12:57:36.557Z,81.20
2019-01-03T13:00:09.128Z,81.10
2019-01-03T13:02:38.332Z,81.00
2019-01-03T13:05:07.870Z,81.30
2019-01-03T13:07:37.053Z,81.00
2019-01-03T13:10:07.840Z,81.10
2019-01-03T13:12:37.058Z,81.20
2019-01-03T13:15:06.889Z,81.20
2019-01-03T13:17:36.072Z,81.10
2019-01-03T13:20:07.091Z,81.10
2019-01-03T13:22:36.267Z,81.30
2019-01-03T13:25:05.919Z,81.40
2019-01-03T13:27:35.096Z,81.40
2019-01-03T13:30:07.109Z,81.40
2019-01-03T13:32:36.314Z,81.30
2019-01-03T13:35:05.867Z,81.20
2019-01-03T13:37:35.038Z,81.10
2019-01-03T13:40:05.676Z,81.10
2019-01-03T13:42:34.857Z,81.10
2019-01-03T13:45:04.657Z,81.00
2019-01-03T13:47:33.840Z,80.90
2019-01-03T13:50:03.601Z,80.90
2019-01-03T13:52:32.773Z,80.50
2019-01-03T13:55:01.960Z,80.30
2019-01-03T13:57:31.152Z,80.60
2019-01-03T14:00:00.323Z,80.40
2019-01-03T14:02:29.532Z,80.40
2019-01-03T14:04:59.581Z,80.60
2019-01-03T14:07:28.774Z,80.30
2019-01-03T14:09:57.972Z,80.60
2019-01-03T14:12:27.238Z,80.60
2019-01-03T14:14:56.432Z,80.80
2019-01-03T14:17:25.631Z,81.00
2019-01-03T14:19:54.841Z,80.90
2019-01-03T14:22:23.998Z,80.90
2019-01-03T14:24:53.184Z,81.20
2019-01-03T14:27:22.377Z,81.60
2019-01-03T14:29:51.586Z,81.60
2019-01-03T14:32:20.780Z,82.90
2019-01-03T14:34:49.965Z,82.80
2019-01-03T14:37:19.150Z,82.30
2019-01-03T14:39:48.325Z,82.30
2019-01-03T14:42:17.488Z,82.20
2019-01-03T14:44:46.689Z,81.80
2019-01-03T14:47:15.853Z,82.50
2019-01-03T14:49:45.035Z,82.70
2019-01-03T14:52:14.233Z,82.90
2019-01-03T14:54:43.400Z,82.90
2019-01-03T14:57:12.591Z,83.00
2019-01-03T14:59:41.797Z,83.20
2019-01-03T15:02:12.142Z,83.60
2019-01-03T15:04:41.496Z,83.20
2019-01-03T15:07:10.709Z,83.40
2019-01-03T15:09:39.913Z,83.60
2019-01-03T15:12:09.076Z,83.40
2019-01-03T15:14:38.273Z,83.50
2019-01-03T15:17:07.445Z,83.50
2019-01-03T15:19:36.633Z,83.70
2019-01-03T15:22:05.848Z,83.00
2019-01-03T15:24:35.040Z,83.00
2019-01-03T15:27:04.209Z,83.00
2019-01-03T15:29:33.407Z,83.40
2019-01-03T15:32:02.602Z,83.40
2019-01-03T15:34:31.776Z,83.30
2019-01-03T15:37:00.940Z,83.10
2019-01-03T15:39:30.120Z,82.90
2019-01-03T15:41:59.316Z,82.80
2019-01-03T15:44:28.536Z,82.80
2019-01-03T15:46:57.989Z,82.80
2019-01-03T15:49:27.176Z,82.80
2019-01-03T15:51:56.341Z,82.70
2019-01-03T15:54:25.529Z,82.60
2019-01-03T15:56:54.721Z,82.60
2019-01-03T15:59:23.950Z,82.40
2019-01-03T16:01:53.126Z,82.60
2019-01-03T16:04:22.294Z,82.70
2019-01-03T16:06:51.469Z,82.80
2019-01-03T16:09:20.652Z,82.80
2019-01-03T16:11:49.841Z,82.80
2019-01-03T16:14:19.009Z,82.90
2019-01-03T16:16:48.199Z,82.80
2019-01-03T16:19:17.433Z,82.60
2019-01-03T16:21:46.605Z,82.40
2019-01-03T16:24:15.804Z,82.50
2019-01-03T16:26:44.975Z,82.40
2019-01-03T16:29:14.191Z,82.30
2019-01-03T16:31:43.421Z,82.30
2019-01-03T16:34:12.600Z,82.40
2019-01-03T16:36:41.847Z,82.30
2019-01-03T16:39:11.095Z,82.20
2019-01-03T16:41:40.337Z,82.40
2019-01-03T16:44:09.509Z,82.50
2019-01-03T16:46:38.697Z,82.60
2019-01-03T16:49:07.889Z,82.70
2019-01-03T16:51:37.053Z,82.90
2019-01-03T16:54:06.256Z,83.50
2019-01-03T16:56:35.448Z,83.80
2019-01-03T16:59:04.659Z,84.40
2019-01-03T17:01:33.839Z,84.70
2019-01-03T17:04:03.032Z,84.70
2019-01-03T17:06:32.285Z,84.70
2019-01-03T17:09:01.448Z,84.70
2019-01-03T17:11:31.718Z,84.50
2019-01-03T17:14:00.880Z,84.10
2019-01-03T17:16:30.076Z,83.90
2019-01-03T17:18:59.278Z,83.90
2019-01-03T17:21:28.517Z,84.00
2019-01-03T17:23:57.684Z,83.60
2019-01-03T17:26:26.889Z,83.30
2019-01-03T17:28:56.064Z,83.00
2019-01-03T17:31:25.280Z,83.10
2019-01-03T17:33:54.456Z,82.90
2019-01-03T17:36:23.655Z,82.80
2019-01-03T17:38:53.926Z,82.70
2019-01-03T17:41:23.124Z,82.80
2019-01-03T17:43:52.320Z,83.00
2019-01-03T17:46:21.520Z,83.10
2019-01-03T17:48:50.720Z,83.50
2019-01-03T17:51:19.909Z,83.40
2019-01-03T17:53:49.102Z,83.40
2019-01-03T17:56:18.615Z,83.50
2019-01-03T17:58:47.818Z,84.00
2019-01-03T18:01:17.000Z,84.20
2019-01-03T18:03:46.205Z,84.20
2019-01-03T18:06:15.397Z,84.20
2019-01-03T18:08:44.917Z,84.50
2019-01-03T18:11:14.117Z,84.70
2019-01-03T18:13:43.324Z,84.70
2019-01-03T18:16:12.530Z,84.70
2019-01-03T18:18:41.714Z,84.80
2019-01-03T18:21:10.896Z,84.90
2019-01-03T18:23:40.085Z,85.10
2019-01-03T18:26:09.507Z,85.00
2019-01-03T18:28:39.027Z,85.00
2019-01-03T18:31:08.206Z,84.90
2019-01-03T18:33:37.419Z,84.70
2019-01-03T18:36:06.608Z,84.50
2019-01-03T18:38:36.128Z,84.50
2019-01-03T18:41:05.305Z,84.40
2019-01-03T18:43:34.829Z,83.90
2019-01-03T18:46:04.029Z,83.70
2019-01-03T18:48:33.200Z,83.80
2019-01-03T18:51:02.448Z,83.80
2019-01-03T18:53:31.644Z,83.50
2019-01-03T18:56:00.849Z,83.40
2019-01-03T18:58:30.332Z,83.00
2019-01-03T19:01:00.593Z,83.40
2019-01-03T19:03:29.752Z,83.40
2019-01-03T19:05:58.956Z,83.50
2019-01-03T19:08:28.153Z,83.70
2019-01-03T19:10:57.660Z,83.70
2019-01-03T19:13:27.171Z,83.80
2019-01-03T19:15:56.392Z,83.60
2019-01-03T19:18:25.586Z,83.70
2019-01-03T19:20:54.789Z,83.60
2019-01-03T19:23:23.992Z,83.70
2019-01-03T19:25:53.309Z,83.90
2019-01-03T19:28:22.504Z,83.90
2019-01-03T19:30:51.688Z,83.60
2019-01-03T19:33:20.879Z,83.30
2019-01-03T19:35:50.066Z,83.40
2019-01-03T19:38:19.586Z,83.30
2019-01-03T19:40:48.772Z,83.30
2019-01-03T19:43:18.033Z,83.00
2019-01-03T19:45:47.264Z,82.50
2019-01-03T19:48:16.782Z,82.60
2019-01-03T19:50:45.975Z,82.60
2019-01-03T19:53:15.221Z,82.10
2019-01-03T19:55:44.484Z,82.20
2019-01-03T19:58:13.656Z,82.10
2019-01-03T20:00:42.852Z,82.20
2019-01-03T20:03:12.039Z,82.00
2019-01-03T20:05:41.245Z,81.80
2019-01-03T20:08:10.433Z,81.80
2019-01-03T20:10:39.632Z,81.80
2019-01-03T20:13:08.828Z,82.00
2019-01-03T20:15:38.091Z,82.40
2019-01-03T20:18:07.579Z,82.60
2019-01-03T20:20:36.752Z,82.80
2019-01-03T20:23:05.935Z,83.40
2019-01-03T20:25:35.111Z,83.80
2019-01-03T20:28:04.344Z,84.30
2019-01-03T20:30:33.517Z,84.60
2019-01-03T20:33:02.712Z,84.90
2019-01-03T20:35:31.912Z,85.20
2019-01-03T20:38:01.076Z,85.50
2019-01-03T20:40:30.311Z,85.70
2019-01-03T20:42:59.512Z,85.70
2019-01-03T20:45:28.715Z,85.80
2019-01-03T20:47:57.907Z,85.90
2019-01-03T20:50:27.379Z,86.00
2019-01-03T20:52:56.604Z,86.00
2019-01-03T20:55:26.081Z,86.10
2019-01-03T20:57:55.281Z,86.00
2019-01-03T21:00:24.629Z,86.10
2019-01-03T21:02:54.102Z,86.10
2019-01-03T21:05:23.345Z,86.10
2019-01-03T21:07:52.540Z,85.80
2019-01-03T21:10:21.842Z,85.70
2019-01-03T21:12:51.081Z,85.50
2019-01-03T21:15:20.321Z,85.30
2019-01-03T21:17:49.487Z,85.20
2019-01-03T21:20:18.688Z,85.20
2019-01-03T21:22:47.883Z,85.30
2019-01-03T21:25:17.056Z,85.10
2019-01-03T21:27:46.264Z,85.10
2019-01-03T21:30:17.629Z,85.00
2019-01-03T21:32:46.880Z,84.80
2019-01-03T21:35:16.083Z,84.70
2019-01-03T21:37:45.279Z,84.50
2019-01-03T21:40:14.750Z,84.60
2019-01-03T21:42:43.933Z,84.80
2019-01-03T21:45:13.142Z,85.20
2019-01-03T21:47:42.367Z,85.70
2019-01-03T21:50:11.891Z,86.00
2019-01-03T21:52:41.096Z,86.00
2019-01-03T21:55:10.284Z,86.20
2019-01-03T21:57:39.498Z,86.50
2019-01-03T22:00:11.033Z,86.60
2019-01-03T22:02:40.527Z,86.70
2019-01-03T22:05:10.131Z,86.80
2019-01-03T22:07:39.300Z,87.10
2019-01-03T22:10:09.740Z,87.10
2019-01-03T22:12:38.917Z,86.90
2019-01-03T22:15:09.158Z,86.80
2019-01-03T22:17:38.365Z,86.90
2019-01-03T22:20:08.807Z,86.80
2019-01-03T22:22:38.023Z,86.70
2019-01-03T22:25:08.086Z,86.60
2019-01-03T22:27:37.270Z,86.60
2019-01-03T22:30:09.107Z,86.60
2019-01-03T22:32:38.314Z,86.60
2019-01-03T22:35:08.552Z,86.60
2019-01-03T22:37:38.693Z,86.50
2019-01-03T22:40:08.451Z,86.20
2019-01-03T22:42:37.641Z,86.00
2019-01-03T22:45:08.182Z,86.10
2019-01-03T22:47:37.674Z,86.30
2019-01-03T22:50:09.396Z,86.60
2019-01-03T22:52:38.620Z,86.80
2019-01-03T22:55:07.815Z,86.90
2019-01-03T22:57:37.338Z,87.00
2019-01-03T23:00:24.568Z,87.00
2019-01-03T23:02:53.967Z,87.00
2019-01-03T23:05:23.120Z,87.10
2019-01-03T23:07:52.326Z,87.10
2019-01-03T23:10:21.511Z,87.50
2019-01-03T23:12:50.703Z,87.60
2019-01-03T23:15:19.911Z,87.80
2019-01-03T23:17:49.095Z,87.90
2019-01-03T23:20:18.298Z,87.70
2019-01-03T23:22:47.871Z,87.60
2019-01-03T23:25:17.382Z,87.50
2019-01-03T23:27:46.782Z,87.40
2019-01-03T23:30:16.219Z,87.40
2019-01-03T23:32:45.438Z,87.30
2019-01-03T23:35:14.880Z,87.20
2019-01-03T23:37:44.091Z,87.00
2019-01-03T23:40:13.364Z,86.90
2019-01-03T23:42:42.550Z,86.80
2019-01-03T23:45:14.984Z,86.70
2019-01-03T23:47:44.259Z,86.60
2019-01-03T23:50:16.357Z,86.60
2019-01-03T23:52:46.389Z,86.70
2019-01-03T23:55:15.850Z,86.80
2019-01-03T23:57:45.388Z,86.50
